createdAt,value
2023-04-06T00:01:09.764Z,54.52
2023-04-06T00:03:37.419Z,53.99
2023-04-06T00:06:05.176Z,53.45
2023-04-06T00:08:32.355Z,53.37
2023-04-06T00:10:59.543Z,52.96
2023-04-06T00:13:26.688Z,52.93
2023-04-06T00:15:53.848Z,52.64
2023-04-06T00:18:20.994Z,52.51
2023-04-06T00:20:48.143Z,51.31
2023-04-06T00:23:15.262Z,52.76
2023-04-06T00:25:42.372Z,54.56
2023-04-06T00:28:09.483Z,55.99
2023-04-06T00:30:36.713Z,57.02
2023-04-06T00:33:03.953Z,57.65
2023-04-06T00:35:31.681Z,57.77
2023-04-06T00:37:58.944Z,57.48
2023-04-06T00:40:26.362Z,57.57
2023-04-06T00:42:53.539Z,57.71
2023-04-06T00:45:20.760Z,58.00
2023-04-06T00:47:47.936Z,58.07
2023-04-06T00:50:15.197Z,58.30
2023-04-06T00:52:42.482Z,58.32
2023-04-06T00:55:11.316Z,58.84
2023-04-06T00:57:42.574Z,59.16
2023-04-06T01:00:11.284Z,59.37
2023-04-06T01:02:39.958Z,59.84
2023-04-06T01:05:08.209Z,59.98
2023-04-06T01:07:48.197Z,60.27
2023-04-06T01:10:27.329Z,60.51
2023-04-06T01:13:03.723Z,60.85
2023-04-06T01:16:11.038Z,61.04
2023-04-06T01:18:48.896Z,61.52
2023-04-06T01:21:28.121Z,61.91
2023-04-06T01:24:27.416Z,62.13
2023-04-06T01:27:02.805Z,62.06
2023-04-06T01:29:42.734Z,62.28
2023-04-06T01:32:12.379Z,62.05
2023-04-06T01:34:47.788Z,62.11
2023-04-06T01:37:14.997Z,62.22
2023-04-06T01:39:44.673Z,62.55
2023-04-06T01:42:17.686Z,62.64
2023-04-06T01:44:48.425Z,62.79
2023-04-06T01:47:16.825Z,62.98
2023-04-06T01:49:45.176Z,62.86
2023-04-06T01:52:13.065Z,63.00
2023-04-06T01:54:43.530Z,63.05
2023-04-06T01:57:16.536Z,63.25
2023-04-06T02:00:03.987Z,63.41
2023-04-06T02:02:48.928Z,63.66
2023-04-06T02:05:22.065Z,63.98
2023-04-06T02:07:52.693Z,64.26
2023-04-06T02:10:27.364Z,64.49
2023-04-06T02:12:55.012Z,64.09
2023-04-06T02:15:27.082Z,64.25
2023-04-06T02:17:54.809Z,63.89
2023-04-06T02:20:22.120Z,63.92
2023-04-06T02:22:50.896Z,63.61
2023-04-06T02:25:18.262Z,62.51
2023-04-06T02:27:45.389Z,61.96
2023-04-06T02:30:12.845Z,60.80
2023-04-06T02:32:39.983Z,60.38
2023-04-06T02:35:08.826Z,59.99
2023-04-06T02:37:36.203Z,59.37
2023-04-06T02:40:03.777Z,59.03
2023-04-06T02:42:32.596Z,58.99
2023-04-06T02:45:00.980Z,58.84
2023-04-06T02:47:32.741Z,58.83
2023-04-06T02:50:00.083Z,58.84
2023-04-06T02:52:27.334Z,58.55
2023-04-06T02:54:55.008Z,59.00
2023-04-06T02:57:27.365Z,58.87
2023-04-06T02:59:55.073Z,58.33
2023-04-06T03:02:30.021Z,57.74
2023-04-06T03:05:06.398Z,57.43
2023-04-06T03:07:38.114Z,58.04
2023-04-06T03:10:07.262Z,57.82
2023-04-06T03:12:34.453Z,57.67
2023-04-06T03:15:20.141Z,57.42
2023-04-06T03:17:52.119Z,57.62
2023-04-06T03:20:34.248Z,58.42
2023-04-06T03:23:01.441Z,58.85
2023-04-06T03:25:32.085Z,59.64
2023-04-06T03:28:03.583Z,59.75
2023-04-06T03:30:33.846Z,59.75
2023-04-06T03:33:01.375Z,59.92
2023-04-06T03:35:32.635Z,59.47
2023-04-06T03:38:00.168Z,58.78
2023-04-06T03:40:28.456Z,58.76
2023-04-06T03:42:55.887Z,58.67
2023-04-06T03:45:23.319Z,58.50
2023-04-06T03:47:51.657Z,58.39
2023-04-06T03:50:20.167Z,58.50
2023-04-06T03:52:47.283Z,58.82
2023-04-06T03:55:14.426Z,59.42
2023-04-06T03:57:41.651Z,59.86
2023-04-06T04:00:09.382Z,60.55
2023-04-06T04:02:42.628Z,61.11
2023-04-06T04:05:10.199Z,61.81
2023-04-06T04:07:37.864Z,62.26
2023-04-06T04:10:06.491Z,63.09
2023-04-06T04:12:33.684Z,63.88
2023-04-06T04:15:00.889Z,64.44
2023-04-06T04:17:28.204Z,64.62
2023-04-06T04:19:55.314Z,65.43
2023-04-06T04:22:22.363Z,65.86
2023-04-06T04:24:49.512Z,66.39
2023-04-06T04:27:16.713Z,67.18
2023-04-06T04:29:44.914Z,68.00
2023-04-06T04:32:13.792Z,68.46
2023-04-06T04:34:41.509Z,68.98
2023-04-06T04:37:13.527Z,69.21
2023-04-06T04:39:49.532Z,69.40
2023-04-06T04:42:16.899Z,69.54
2023-04-06T04:44:50.067Z,69.74
2023-04-06T04:47:27.412Z,69.86
2023-04-06T04:49:54.627Z,69.46
2023-04-06T04:52:24.073Z,69.12
2023-04-06T04:55:16.822Z,66.78
2023-04-06T04:57:47.102Z,63.40
2023-04-06T05:00:15.688Z,59.86
2023-04-06T05:02:44.897Z,56.85
2023-04-06T05:05:41.386Z,54.46
2023-04-06T05:08:08.691Z,52.48
2023-04-06T05:10:49.398Z,51.86
2023-04-06T05:13:17.296Z,54.26
2023-04-06T05:15:46.952Z,55.18
2023-04-06T05:18:26.841Z,54.92
2023-04-06T05:20:54.816Z,54.76
2023-04-06T05:23:28.543Z,53.82
2023-04-06T05:25:56.692Z,52.95
2023-04-06T05:28:24.191Z,50.81
2023-04-06T05:30:51.506Z,50.39
2023-04-06T05:33:19.339Z,48.88
2023-04-06T05:36:02.249Z,47.61
2023-04-06T05:38:29.666Z,43.90
2023-04-06T05:41:00.595Z,42.40
2023-04-06T05:43:32.104Z,41.95
2023-04-06T05:46:01.107Z,40.17
2023-04-06T05:48:28.373Z,38.73
2023-04-06T05:50:55.915Z,38.35
2023-04-06T05:53:30.372Z,37.53
2023-04-06T05:56:04.404Z,36.98
2023-04-06T05:58:31.720Z,35.53
2023-04-06T06:01:04.225Z,36.18
2023-04-06T06:03:38.969Z,42.77
2023-04-06T06:06:07.264Z,39.65
2023-04-06T06:09:01.969Z,38.73
2023-04-06T06:11:34.188Z,36.43
2023-04-06T06:14:03.311Z,35.16
2023-04-06T06:16:34.528Z,35.72
2023-04-06T06:19:01.646Z,36.07
2023-04-06T06:21:28.826Z,37.31
2023-04-06T06:23:56.032Z,36.52
2023-04-06T06:26:24.284Z,38.78
2023-04-06T06:28:51.519Z,37.02
2023-04-06T06:31:21.722Z,37.51
2023-04-06T06:33:51.392Z,37.72
2023-04-06T06:36:20.356Z,37.64
2023-04-06T06:38:47.959Z,39.66
2023-04-06T06:41:17.747Z,39.68
2023-04-06T06:43:45.814Z,39.60
2023-04-06T06:46:12.998Z,39.21
2023-04-06T06:48:41.610Z,39.52
2023-04-06T06:51:10.616Z,41.02
2023-04-06T06:53:37.964Z,38.51
2023-04-06T06:56:05.347Z,38.11
2023-04-06T06:58:32.782Z,39.12
2023-04-06T07:01:01.113Z,40.52
2023-04-06T07:03:32.522Z,37.74
2023-04-06T07:06:00.747Z,37.55
2023-04-06T07:08:28.027Z,37.30
2023-04-06T07:10:57.651Z,36.75
2023-04-06T07:13:25.772Z,38.67
2023-04-06T07:15:56.144Z,38.80
2023-04-06T07:18:23.881Z,38.71
2023-04-06T07:20:51.173Z,39.76
2023-04-06T07:23:18.819Z,38.74
2023-04-06T07:25:46.725Z,39.46
2023-04-06T07:28:13.886Z,37.99
2023-04-06T07:30:41.964Z,39.23
2023-04-06T07:33:11.360Z,37.83
2023-04-06T07:35:39.426Z,37.82
2023-04-06T07:38:07.619Z,38.85
2023-04-06T07:40:36.329Z,38.21
2023-04-06T07:43:04.246Z,37.16
2023-04-06T07:45:32.674Z,38.32
2023-04-06T07:48:01.437Z,34.55
2023-04-06T07:50:29.104Z,35.98
2023-04-06T07:52:57.454Z,35.10
2023-04-06T07:55:25.105Z,35.50
2023-04-06T07:57:52.346Z,34.40
2023-04-06T08:00:20.636Z,35.56
2023-04-06T08:02:47.829Z,35.55
2023-04-06T08:05:15.123Z,32.53
2023-04-06T08:07:42.796Z,33.15
2023-04-06T08:10:10.276Z,34.16
2023-04-06T08:12:37.605Z,34.71
2023-04-06T08:15:05.764Z,37.31
2023-04-06T08:17:33.703Z,38.24
2023-04-06T08:20:01.586Z,38.24
2023-04-06T08:22:28.835Z,37.47
2023-04-06T08:24:56.098Z,37.01
2023-04-06T08:27:23.344Z,38.57
2023-04-06T08:29:51.220Z,40.61
2023-04-06T08:32:18.483Z,40.65
2023-04-06T08:34:45.576Z,41.52
2023-04-06T08:37:12.792Z,44.22
2023-04-06T08:39:40.057Z,44.44
2023-04-06T08:42:13.980Z,44.99
2023-04-06T08:44:42.375Z,45.08
2023-04-06T08:47:09.508Z,46.40
2023-04-06T08:49:38.986Z,45.92
2023-04-06T08:52:09.308Z,46.13
2023-04-06T08:54:36.384Z,47.35
2023-04-06T08:57:04.619Z,46.93
2023-04-06T08:59:32.732Z,47.51
2023-04-06T09:02:03.186Z,47.66
2023-04-06T09:04:30.378Z,48.49
2023-04-06T09:06:57.708Z,49.01
2023-04-06T09:09:26.274Z,48.43
2023-04-06T09:11:53.868Z,47.82
2023-04-06T09:14:40.662Z,48.08
2023-04-06T09:17:07.948Z,47.58
2023-04-06T09:19:35.096Z,47.83
2023-04-06T09:22:08.726Z,48.60
2023-04-06T09:25:01.887Z,48.77
2023-04-06T09:27:34.028Z,48.40
2023-04-06T09:30:09.437Z,48.06
2023-04-06T09:33:05.954Z,49.18
2023-04-06T09:35:34.193Z,50.57
2023-04-06T09:38:12.328Z,50.92
2023-04-06T09:41:00.881Z,50.89
2023-04-06T09:43:29.543Z,50.46
2023-04-06T09:46:04.098Z,50.35
2023-04-06T09:48:35.729Z,51.50
2023-04-06T09:51:07.775Z,50.92
2023-04-06T09:53:40.087Z,51.74
2023-04-06T09:56:14.177Z,52.62
2023-04-06T09:58:45.120Z,52.84
2023-04-06T10:01:18.164Z,53.58
2023-04-06T10:04:00.589Z,54.30
2023-04-06T10:06:34.416Z,53.38
2023-04-06T10:09:05.618Z,54.57
2023-04-06T10:11:35.688Z,55.01
2023-04-06T10:14:02.826Z,55.53
2023-04-06T10:16:31.102Z,53.18
2023-04-06T10:19:06.895Z,54.27
2023-04-06T10:21:35.666Z,52.45
2023-04-06T10:24:08.240Z,53.87
2023-04-06T10:26:35.728Z,54.23
2023-04-06T10:29:06.767Z,53.68
2023-04-06T10:31:33.989Z,55.58
2023-04-06T10:34:03.772Z,55.93
2023-04-06T10:36:35.442Z,52.89
2023-04-06T10:39:07.044Z,53.41
2023-04-06T10:41:35.454Z,55.53
2023-04-06T10:44:03.735Z,55.50
2023-04-06T10:46:32.775Z,53.26
2023-04-06T10:49:11.318Z,55.08
2023-04-06T10:51:39.337Z,54.13
2023-04-06T10:54:07.799Z,56.14
2023-04-06T10:56:38.486Z,55.49
2023-04-06T10:59:07.474Z,57.71
2023-04-06T11:01:34.567Z,55.31
2023-04-06T11:04:01.850Z,55.80
2023-04-06T11:06:32.354Z,54.38
2023-04-06T11:08:59.977Z,51.73
2023-04-06T11:11:28.365Z,53.08
2023-04-06T11:13:56.975Z,54.18
2023-04-06T11:16:32.374Z,54.97
2023-04-06T11:19:09.716Z,55.28
2023-04-06T11:21:43.184Z,54.54
2023-04-06T11:24:24.250Z,54.76
2023-04-06T11:26:55.289Z,52.13
2023-04-06T11:29:25.019Z,52.70
2023-04-06T11:31:55.242Z,53.96
2023-04-06T11:34:24.276Z,55.39
2023-04-06T11:36:58.193Z,56.20
2023-04-06T11:39:26.941Z,56.68
2023-04-06T11:41:56.849Z,53.59
2023-04-06T11:44:34.726Z,56.14
2023-04-06T11:47:06.847Z,50.14
2023-04-06T11:49:37.833Z,48.28
2023-04-06T11:52:16.827Z,48.86
2023-04-06T11:54:44.005Z,51.10
2023-04-06T11:57:11.042Z,54.98
2023-04-06T11:59:38.271Z,53.52
2023-04-06T12:02:06.160Z,55.11
2023-04-06T12:04:33.724Z,57.84
2023-04-06T12:07:00.840Z,58.28
2023-04-06T12:09:28.220Z,58.95
2023-04-06T12:11:55.311Z,60.36
2023-04-06T12:14:22.786Z,62.03
2023-04-06T12:16:50.122Z,62.38
2023-04-06T12:19:17.396Z,60.94
2023-04-06T12:21:44.556Z,61.05
2023-04-06T12:24:11.591Z,62.61
2023-04-06T12:26:38.705Z,57.49
2023-04-06T12:29:09.009Z,57.85
2023-04-06T12:31:37.818Z,56.14
2023-04-06T12:34:05.002Z,56.04
2023-04-06T12:36:32.625Z,56.59
2023-04-06T12:39:01.587Z,58.60
2023-04-06T12:41:31.983Z,56.71
2023-04-06T12:44:00.834Z,57.01
2023-04-06T12:46:28.165Z,56.67
2023-04-06T12:48:56.272Z,57.21
2023-04-06T12:51:23.776Z,58.25
2023-04-06T12:53:51.555Z,60.33
2023-04-06T12:56:19.750Z,60.45
2023-04-06T12:58:46.999Z,59.35
2023-04-06T13:01:14.852Z,58.74
2023-04-06T13:03:42.662Z,62.50
2023-04-06T13:06:10.571Z,63.67
2023-04-06T13:08:39.416Z,62.60
2023-04-06T13:11:10.078Z,63.46
2023-04-06T13:13:38.266Z,62.73
2023-04-06T13:16:08.603Z,65.42
2023-04-06T13:18:37.919Z,64.92
2023-04-06T13:21:09.074Z,65.18
2023-04-06T13:23:36.687Z,65.05
2023-04-06T13:26:07.122Z,62.27
2023-04-06T13:28:36.540Z,60.19
2023-04-06T13:31:03.791Z,61.15
2023-04-06T13:33:31.892Z,62.41
2023-04-06T13:36:00.155Z,63.85
2023-04-06T13:38:27.541Z,63.19
2023-04-06T13:40:54.832Z,62.40
2023-04-06T13:43:22.169Z,60.99
2023-04-06T13:45:53.589Z,60.86
2023-04-06T13:48:21.125Z,62.02
2023-04-06T13:50:48.173Z,60.93
2023-04-06T13:53:15.701Z,60.47
2023-04-06T13:55:43.059Z,61.21
2023-04-06T13:58:10.198Z,61.34
2023-04-06T14:00:38.235Z,60.96
2023-04-06T14:03:05.667Z,62.45
2023-04-06T14:05:35.672Z,61.78
2023-04-06T14:08:03.142Z,61.00
2023-04-06T14:10:30.364Z,60.95
2023-04-06T14:12:59.321Z,62.68
2023-04-06T14:15:29.048Z,60.02
2023-04-06T14:17:56.167Z,59.60
2023-04-06T14:20:23.481Z,59.20
2023-04-06T14:22:52.614Z,59.39
2023-04-06T14:25:19.909Z,63.66
2023-04-06T14:27:46.956Z,61.99
2023-04-06T14:30:14.774Z,58.26
2023-04-06T14:32:41.974Z,59.25
2023-04-06T14:35:09.393Z,62.61
2023-04-06T14:37:36.585Z,60.00
2023-04-06T14:40:05.076Z,60.75
2023-04-06T14:42:32.676Z,60.45
2023-04-06T14:44:59.797Z,60.83
2023-04-06T14:50:54.656Z,62.63
2023-04-06T14:53:22.842Z,62.64
2023-04-06T14:55:52.549Z,62.33
2023-04-06T14:58:20.960Z,60.29
2023-04-06T15:00:48.676Z,59.62
2023-04-06T15:03:16.746Z,59.57
2023-04-06T15:05:44.114Z,59.36
2023-04-06T15:08:12.679Z,60.58
2023-04-06T15:10:39.990Z,60.94
2023-04-06T15:13:07.123Z,61.75
2023-04-06T15:15:34.282Z,61.87
2023-04-06T15:18:03.543Z,60.84
2023-04-06T15:23:35.266Z,63.58
2023-04-06T15:26:02.579Z,64.02
2023-04-06T15:28:29.894Z,62.48
2023-04-06T15:30:58.589Z,63.34
2023-04-06T15:33:27.723Z,63.88
2023-04-06T15:35:55.845Z,63.81
2023-04-06T15:38:23.936Z,61.76
2023-04-06T15:40:51.364Z,61.82
2023-04-06T15:43:18.616Z,62.72
2023-04-06T15:45:45.693Z,62.21
2023-04-06T15:48:12.778Z,61.21
2023-04-06T15:50:40.076Z,60.76
2023-04-06T15:53:07.479Z,61.94
2023-04-06T15:55:34.497Z,62.84
2023-04-06T15:58:01.715Z,64.30
2023-04-06T16:00:29.152Z,62.72
2023-04-06T16:02:57.354Z,63.63
2023-04-06T16:05:25.255Z,63.64
2023-04-06T16:07:53.379Z,61.08
2023-04-06T16:10:20.459Z,58.82
2023-04-06T16:12:47.653Z,62.33
2023-04-06T16:15:15.174Z,58.65
2023-04-06T16:17:43.749Z,59.14
2023-04-06T16:20:12.166Z,56.45
2023-04-06T16:22:39.411Z,55.84
2023-04-06T16:25:07.001Z,55.55
2023-04-06T16:27:34.357Z,54.69
2023-04-06T16:32:29.490Z,54.42
2023-04-06T16:34:57.027Z,54.39
2023-04-06T16:37:24.276Z,53.93
2023-04-06T16:39:53.212Z,54.34
2023-04-06T16:42:21.788Z,54.73
2023-04-06T16:44:49.581Z,52.75
2023-04-06T16:47:17.773Z,52.24
2023-04-06T16:49:45.331Z,49.42
2023-04-06T16:52:14.182Z,46.97
2023-04-06T16:54:41.346Z,46.05
2023-04-06T16:57:09.047Z,44.62
2023-04-06T16:59:36.410Z,44.55
2023-04-06T17:02:03.786Z,43.84
2023-04-06T17:04:31.182Z,44.04
2023-04-06T17:06:58.215Z,43.73
2023-04-06T17:09:25.438Z,43.23
2023-04-06T17:11:52.673Z,42.66
2023-04-06T17:14:19.742Z,42.96
2023-04-06T17:16:47.099Z,42.21
2023-04-06T17:19:14.159Z,44.10
2023-04-06T17:21:42.321Z,44.25
2023-04-06T17:24:09.485Z,43.05
2023-04-06T17:26:36.650Z,43.76
2023-04-06T17:29:03.831Z,44.28
2023-04-06T17:31:31.869Z,47.03
2023-04-06T17:33:59.935Z,47.11
2023-04-06T17:36:30.138Z,49.28
2023-04-06T17:38:57.390Z,49.68
2023-04-06T17:41:25.713Z,50.71
2023-04-06T17:43:52.814Z,49.60
2023-04-06T17:46:21.477Z,47.31
2023-04-06T17:48:48.823Z,46.61
2023-04-06T17:51:19.051Z,46.78
2023-04-06T17:53:47.374Z,47.16
2023-04-06T17:56:14.644Z,48.05
2023-04-06T17:58:41.784Z,47.80
2023-04-06T18:01:12.911Z,47.31
2023-04-06T18:03:40.676Z,47.36
2023-04-06T18:06:16.093Z,45.66
2023-04-06T18:08:43.773Z,45.75
2023-04-06T18:11:22.022Z,46.02
2023-04-06T18:13:49.781Z,45.92
2023-04-06T18:16:20.281Z,45.08
2023-04-06T18:18:47.711Z,44.66
2023-04-06T18:21:14.852Z,44.09
2023-04-06T18:23:42.050Z,44.71
2023-04-06T18:26:17.207Z,44.75
2023-04-06T18:28:44.700Z,45.30
2023-04-06T18:31:11.839Z,45.87
2023-04-06T18:33:38.939Z,46.08
2023-04-06T18:36:06.519Z,46.71
2023-04-06T18:38:33.716Z,46.44
2023-04-06T18:41:01.112Z,46.60
2023-04-06T18:43:28.742Z,46.75
2023-04-06T18:45:55.974Z,47.36
2023-04-06T18:48:23.068Z,47.37
2023-04-06T18:51:01.990Z,47.29
2023-04-06T18:53:29.261Z,46.51
2023-04-06T18:55:57.591Z,45.73
2023-04-06T18:58:28.559Z,45.65
2023-04-06T19:00:59.324Z,45.28
2023-04-06T19:03:26.698Z,45.74
2023-04-06T19:05:54.212Z,45.55
2023-04-06T19:08:21.399Z,45.93
2023-04-06T19:10:49.531Z,46.01
2023-04-06T19:13:16.656Z,46.53
2023-04-06T19:15:43.934Z,46.84
2023-04-06T19:18:11.637Z,48.13
2023-04-06T19:20:38.972Z,48.16
2023-04-06T19:23:06.760Z,48.88
2023-04-06T19:25:34.067Z,50.21
2023-04-06T19:28:01.774Z,50.27
2023-04-06T19:30:29.037Z,50.50
2023-04-06T19:32:56.218Z,50.96
2023-04-06T19:35:24.332Z,51.99
2023-04-06T19:37:52.829Z,51.64
2023-04-06T19:40:20.108Z,51.70
2023-04-06T19:42:47.265Z,51.87
2023-04-06T19:45:14.465Z,52.80
2023-04-06T19:47:41.758Z,52.57
2023-04-06T19:50:10.600Z,52.82
2023-04-06T19:52:37.792Z,52.89
2023-04-06T19:55:05.063Z,53.14
2023-04-06T19:57:32.286Z,53.38
2023-04-06T19:59:59.306Z,53.60
2023-04-06T20:02:26.741Z,53.99
2023-04-06T20:04:54.274Z,53.98
2023-04-06T20:07:21.440Z,54.89
2023-04-06T20:09:48.814Z,56.44
2023-04-06T20:12:16.170Z,57.83
2023-04-06T20:14:43.266Z,57.75
2023-04-06T20:17:10.368Z,58.31
2023-04-06T20:19:37.468Z,57.87
2023-04-06T20:22:05.129Z,57.78
2023-04-06T20:24:32.299Z,57.34
2023-04-06T20:26:59.601Z,57.42
2023-04-06T20:29:27.459Z,58.09
2023-04-06T20:31:54.881Z,58.73
2023-04-06T20:34:24.526Z,58.71
2023-04-06T20:36:51.940Z,58.41
2023-04-06T20:39:19.065Z,57.53
2023-04-06T20:41:46.230Z,58.36
2023-04-06T20:44:13.558Z,58.83
2023-04-06T20:46:41.070Z,59.75
2023-04-06T20:49:08.333Z,59.89
2023-04-06T20:51:35.694Z,60.48
2023-04-06T20:54:03.218Z,60.70
2023-04-06T20:56:30.950Z,60.11
2023-04-06T20:58:58.704Z,61.52
2023-04-06T21:01:25.980Z,62.10
2023-04-06T21:03:53.275Z,60.17
2023-04-06T21:06:21.134Z,60.17
2023-04-06T21:08:48.338Z,59.69
2023-04-06T21:11:15.696Z,60.44
2023-04-06T21:13:42.783Z,61.28
2023-04-06T21:16:10.497Z,61.73
2023-04-06T21:18:39.056Z,60.99
2023-04-06T21:21:06.866Z,60.95
2023-04-06T21:23:34.507Z,60.64
2023-04-06T21:26:02.672Z,59.61
2023-04-06T21:28:30.254Z,59.93
2023-04-06T21:30:57.468Z,59.83
2023-04-06T21:33:24.682Z,60.49
2023-04-06T21:35:52.165Z,60.31
2023-04-06T21:38:19.246Z,59.53
2023-04-06T21:40:54.514Z,59.18
2023-04-06T21:43:21.701Z,59.15
2023-04-06T21:45:52.278Z,59.30
2023-04-06T21:48:19.490Z,59.84
2023-04-06T21:50:46.577Z,60.65
2023-04-06T21:53:13.706Z,61.08
2023-04-06T21:55:45.346Z,61.48
2023-04-06T21:58:13.497Z,61.29
2023-04-06T22:00:41.281Z,61.38
2023-04-06T22:03:08.692Z,61.58
2023-04-06T22:05:38.360Z,61.58
2023-04-06T22:08:05.685Z,61.31
2023-04-06T22:10:32.812Z,61.06
2023-04-06T22:13:00.041Z,60.87
2023-04-06T22:15:27.101Z,60.71
2023-04-06T22:17:54.353Z,60.83
2023-04-06T22:20:21.445Z,60.97
2023-04-06T22:22:48.555Z,61.54
2023-04-06T22:25:15.721Z,62.34
2023-04-06T22:27:42.722Z,62.43
2023-04-06T22:30:10.746Z,62.33
2023-04-06T22:32:37.808Z,62.61
2023-04-06T22:35:05.285Z,62.59
2023-04-06T22:37:32.873Z,62.72
2023-04-06T22:39:59.916Z,62.87
2023-04-06T22:42:27.000Z,63.26
2023-04-06T22:44:54.118Z,63.34
2023-04-06T22:47:21.290Z,63.30
2023-04-06T22:49:48.477Z,63.04
2023-04-06T22:52:15.674Z,63.34
2023-04-06T22:54:42.824Z,63.11
2023-04-06T22:57:09.996Z,62.99
2023-04-06T22:59:37.248Z,63.15
2023-04-06T23:02:04.660Z,63.15
2023-04-06T23:04:32.023Z,63.36
2023-04-06T23:06:59.071Z,63.27
2023-04-06T23:09:26.315Z,63.34
2023-04-06T23:11:53.690Z,63.42
2023-04-06T23:14:20.904Z,63.46
2023-04-06T23:16:48.144Z,63.79
2023-04-06T23:19:15.336Z,63.65
2023-04-06T23:21:42.531Z,63.95
2023-04-06T23:24:09.559Z,63.71
2023-04-06T23:26:36.761Z,63.58
2023-04-06T23:29:03.850Z,64.36
2023-04-06T23:31:31.263Z,63.98
2023-04-06T23:33:58.353Z,64.24
2023-04-06T23:36:26.226Z,64.17
2023-04-06T23:38:53.506Z,64.16
2023-04-06T23:41:20.647Z,63.48
2023-04-06T23:43:47.769Z,63.18
2023-04-06T23:46:18.688Z,63.53
2023-04-06T23:48:45.776Z,63.50
2023-04-06T23:51:13.063Z,63.84
2023-04-06T23:53:40.359Z,63.91
2023-04-06T23:56:07.850Z,63.85
2023-04-06T23:58:35.100Z,63.90
